sensor_id;sensor_type;location;lat;lon;timestamp;temperature;humidity
23405;DHT22;11875;49.356;2.718;2023-08-20T00:00:22;22.80;99.90
23405;DHT22;11875;49.356;2.718;2023-08-20T00:02:52;22.70;99.90
23405;DHT22;11875;49.356;2.718;2023-08-20T00:05:22;22.70;99.90
23405;DHT22;11875;49.356;2.718;2023-08-20T00:07:48;22.70;99.90
23405;DHT22;11875;49.356;2.718;2023-08-20T00:10:14;22.70;99.90
23405;DHT22;11875;49.356;2.718;2023-08-20T00:12:39;22.60;99.90
23405;DHT22;11875;49.356;2.718;2023-08-20T00:15:05;22.60;99.90
23405;DHT22;11875;49.356;2.718;2023-08-20T00:17:35;22.60;99.90
23405;DHT22;11875;49.356;2.718;2023-08-20T00:20:03;22.60;99.90
23405;DHT22;11875;49.356;2.718;2023-08-20T00:22:38;22.60;99.90
23405;DHT22;11875;49.356;2.718;2023-08-20T00:25:04;22.70;99.90
23405;DHT22;11875;49.356;2.718;2023-08-20T00:27:31;22.60;99.90
23405;DHT22;11875;49.356;2.718;2023-08-20T00:29:56;22.50;99.90
23405;DHT22;11875;49.356;2.718;2023-08-20T00:32:22;22.60;99.90
23405;DHT22;11875;49.356;2.718;2023-08-20T00:34:47;22.50;99.90
23405;DHT22;11875;49.356;2.718;2023-08-20T00:37:13;22.50;99.90
23405;DHT22;11875;49.356;2.718;2023-08-20T00:39:39;22.50;99.90
23405;DHT22;11875;49.356;2.718;2023-08-20T00:42:05;22.40;99.90
23405;DHT22;11875;49.356;2.718;2023-08-20T00:44:31;22.40;99.90
23405;DHT22;11875;49.356;2.718;2023-08-20T00:46:56;22.40;99.90
23405;DHT22;11875;49.356;2.718;2023-08-20T00:49:22;22.30;99.90
23405;DHT22;11875;49.356;2.718;2023-08-20T00:51:50;22.30;99.90
23405;DHT22;11875;49.356;2.718;2023-08-20T00:54:16;22.20;99.90
23405;DHT22;11875;49.356;2.718;2023-08-20T00:56:42;22.20;99.90
23405;DHT22;11875;49.356;2.718;2023-08-20T00:59:08;22.20;99.90
23405;DHT22;11875;49.356;2.718;2023-08-20T01:01:33;22.20;99.90
23405;DHT22;11875;49.356;2.718;2023-08-20T01:03:59;22.20;99.90
23405;DHT22;11875;49.356;2.718;2023-08-20T01:11:52;22.10;99.90
23405;DHT22;11875;49.356;2.718;2023-08-20T01:14:21;22.10;99.90
23405;DHT22;11875;49.356;2.718;2023-08-20T01:16:46;22.10;99.90
23405;DHT22;11875;49.356;2.718;2023-08-20T01:19:17;22.10;99.90
23405;DHT22;11875;49.356;2.718;2023-08-20T01:22:13;22.10;99.90
23405;DHT22;11875;49.356;2.718;2023-08-20T01:25:11;22.10;99.90
23405;DHT22;11875;49.356;2.718;2023-08-20T01:28:03;22.00;99.90
23405;DHT22;11875;49.356;2.718;2023-08-20T01:30:32;21.90;99.90
23405;DHT22;11875;49.356;2.718;2023-08-20T01:32:59;21.90;99.90
23405;DHT22;11875;49.356;2.718;2023-08-20T01:35:25;21.90;99.90
23405;DHT22;11875;49.356;2.718;2023-08-20T01:37:52;21.90;99.90
23405;DHT22;11875;49.356;2.718;2023-08-20T01:40:17;21.80;99.90
23405;DHT22;11875;49.356;2.718;2023-08-20T01:42:43;21.70;99.90
23405;DHT22;11875;49.356;2.718;2023-08-20T01:45:09;21.80;99.90
23405;DHT22;11875;49.356;2.718;2023-08-20T01:47:35;21.70;99.90
23405;DHT22;11875;49.356;2.718;2023-08-20T01:50:01;21.70;99.90
23405;DHT22;11875;49.356;2.718;2023-08-20T01:52:26;21.60;99.90
23405;DHT22;11875;49.356;2.718;2023-08-20T01:54:52;21.60;99.90
23405;DHT22;11875;49.356;2.718;2023-08-20T01:57:19;21.60;99.90
23405;DHT22;11875;49.356;2.718;2023-08-20T01:59:44;21.60;99.90
23405;DHT22;11875;49.356;2.718;2023-08-20T02:02:10;21.60;99.90
23405;DHT22;11875;49.356;2.718;2023-08-20T02:04:35;21.50;99.90
23405;DHT22;11875;49.356;2.718;2023-08-20T02:07:01;21.40;99.90
23405;DHT22;11875;49.356;2.718;2023-08-20T02:09:27;21.40;99.90
23405;DHT22;11875;49.356;2.718;2023-08-20T02:11:52;21.30;99.90
23405;DHT22;11875;49.356;2.718;2023-08-20T02:14:18;21.30;99.90
23405;DHT22;11875;49.356;2.718;2023-08-20T02:16:44;21.30;99.90
23405;DHT22;11875;49.356;2.718;2023-08-20T02:19:09;21.40;99.90
23405;DHT22;11875;49.356;2.718;2023-08-20T02:21:35;21.40;99.90
23405;DHT22;11875;49.356;2.718;2023-08-20T02:24:01;21.30;99.90
23405;DHT22;11875;49.356;2.718;2023-08-20T02:26:27;21.20;99.90
23405;DHT22;11875;49.356;2.718;2023-08-20T02:28:52;21.20;99.90
23405;DHT22;11875;49.356;2.718;2023-08-20T02:31:18;21.20;99.90
23405;DHT22;11875;49.356;2.718;2023-08-20T02:33:43;21.20;99.90
23405;DHT22;11875;49.356;2.718;2023-08-20T02:36:09;21.30;99.90
23405;DHT22;11875;49.356;2.718;2023-08-20T02:38:35;21.20;99.90
23405;DHT22;11875;49.356;2.718;2023-08-20T02:41:01;21.20;99.90
23405;DHT22;11875;49.356;2.718;2023-08-20T02:43:28;21.30;99.90
23405;DHT22;11875;49.356;2.718;2023-08-20T02:45:54;21.30;99.90
23405;DHT22;11875;49.356;2.718;2023-08-20T02:48:20;21.20;99.90
23405;DHT22;11875;49.356;2.718;2023-08-20T02:50:45;21.20;99.90
23405;DHT22;11875;49.356;2.718;2023-08-20T02:53:11;21.10;99.90
23405;DHT22;11875;49.356;2.718;2023-08-20T02:55:37;21.10;99.90
23405;DHT22;11875;49.356;2.718;2023-08-20T02:58:03;21.00;99.90
23405;DHT22;11875;49.356;2.718;2023-08-20T03:00:30;21.00;99.90
23405;DHT22;11875;49.356;2.718;2023-08-20T03:02:56;21.00;99.90
23405;DHT22;11875;49.356;2.718;2023-08-20T03:05:22;21.00;99.90
23405;DHT22;11875;49.356;2.718;2023-08-20T03:07:47;21.00;99.90
23405;DHT22;11875;49.356;2.718;2023-08-20T03:10:13;21.20;99.90
23405;DHT22;11875;49.356;2.718;2023-08-20T03:12:38;21.00;99.90
23405;DHT22;11875;49.356;2.718;2023-08-20T03:15:04;21.00;99.90
23405;DHT22;11875;49.356;2.718;2023-08-20T03:17:30;20.90;99.90
23405;DHT22;11875;49.356;2.718;2023-08-20T03:19:57;20.90;99.90
23405;DHT22;11875;49.356;2.718;2023-08-20T03:22:24;20.90;99.90
23405;DHT22;11875;49.356;2.718;2023-08-20T03:24:50;21.10;99.90
23405;DHT22;11875;49.356;2.718;2023-08-20T03:27:17;20.80;99.90
23405;DHT22;11875;49.356;2.718;2023-08-20T03:29:43;20.80;99.90
23405;DHT22;11875;49.356;2.718;2023-08-20T03:32:09;20.80;99.90
23405;DHT22;11875;49.356;2.718;2023-08-20T03:34:34;20.70;99.90
23405;DHT22;11875;49.356;2.718;2023-08-20T03:37:01;20.70;99.90
23405;DHT22;11875;49.356;2.718;2023-08-20T03:39:26;20.70;99.90
23405;DHT22;11875;49.356;2.718;2023-08-20T03:41:52;20.70;99.90
23405;DHT22;11875;49.356;2.718;2023-08-20T03:44:18;20.70;99.90
23405;DHT22;11875;49.356;2.718;2023-08-20T03:46:43;20.70;99.90
23405;DHT22;11875;49.356;2.718;2023-08-20T03:49:09;20.70;99.90
23405;DHT22;11875;49.356;2.718;2023-08-20T03:51:35;20.70;99.90
23405;DHT22;11875;49.356;2.718;2023-08-20T03:54:01;20.70;99.90
23405;DHT22;11875;49.356;2.718;2023-08-20T03:56:26;20.60;99.90
23405;DHT22;11875;49.356;2.718;2023-08-20T03:58:52;20.60;99.90
23405;DHT22;11875;49.356;2.718;2023-08-20T04:01:21;20.40;99.90
23405;DHT22;11875;49.356;2.718;2023-08-20T04:03:47;20.40;99.90
23405;DHT22;11875;49.356;2.718;2023-08-20T04:06:13;20.50;99.90
23405;DHT22;11875;49.356;2.718;2023-08-20T04:08:39;20.40;99.90
23405;DHT22;11875;49.356;2.718;2023-08-20T04:11:05;20.50;99.90
23405;DHT22;11875;49.356;2.718;2023-08-20T04:13:31;20.40;99.90
23405;DHT22;11875;49.356;2.718;2023-08-20T04:15:56;20.30;99.90
23405;DHT22;11875;49.356;2.718;2023-08-20T04:18:22;20.30;99.90
23405;DHT22;11875;49.356;2.718;2023-08-20T04:20:50;20.30;99.90
23405;DHT22;11875;49.356;2.718;2023-08-20T04:23:16;20.20;99.90
23405;DHT22;11875;49.356;2.718;2023-08-20T04:25:41;20.10;99.90
23405;DHT22;11875;49.356;2.718;2023-08-20T04:28:07;20.00;99.90
23405;DHT22;11875;49.356;2.718;2023-08-20T04:30:34;20.10;99.90
23405;DHT22;11875;49.356;2.718;2023-08-20T04:33:00;20.20;99.90
23405;DHT22;11875;49.356;2.718;2023-08-20T04:35:26;20.20;99.90
23405;DHT22;11875;49.356;2.718;2023-08-20T04:37:51;20.10;99.90
23405;DHT22;11875;49.356;2.718;2023-08-20T04:40:17;20.10;99.90
23405;DHT22;11875;49.356;2.718;2023-08-20T04:42:42;20.10;99.90
23405;DHT22;11875;49.356;2.718;2023-08-20T04:45:08;20.20;99.90
23405;DHT22;11875;49.356;2.718;2023-08-20T04:47:35;20.20;99.90
23405;DHT22;11875;49.356;2.718;2023-08-20T04:50:00;20.10;99.90
23405;DHT22;11875;49.356;2.718;2023-08-20T04:52:26;20.10;99.90
23405;DHT22;11875;49.356;2.718;2023-08-20T04:54:52;20.20;99.90
23405;DHT22;11875;49.356;2.718;2023-08-20T04:57:17;20.20;99.90
23405;DHT22;11875;49.356;2.718;2023-08-20T04:59:43;20.30;99.90
23405;DHT22;11875;49.356;2.718;2023-08-20T05:02:11;20.30;99.90
23405;DHT22;11875;49.356;2.718;2023-08-20T05:04:38;20.30;99.90
23405;DHT22;11875;49.356;2.718;2023-08-20T05:07:03;20.20;99.90
23405;DHT22;11875;49.356;2.718;2023-08-20T05:09:29;20.20;99.90
23405;DHT22;11875;49.356;2.718;2023-08-20T05:11:54;20.10;99.90
23405;DHT22;11875;49.356;2.718;2023-08-20T05:14:20;20.10;99.90
23405;DHT22;11875;49.356;2.718;2023-08-20T05:16:46;20.10;99.90
23405;DHT22;11875;49.356;2.718;2023-08-20T05:19:11;20.10;99.90
23405;DHT22;11875;49.356;2.718;2023-08-20T05:21:37;20.10;99.90
23405;DHT22;11875;49.356;2.718;2023-08-20T05:24:02;20.10;99.90
23405;DHT22;11875;49.356;2.718;2023-08-20T05:26:29;20.10;99.90
23405;DHT22;11875;49.356;2.718;2023-08-20T05:28:54;20.20;99.90
23405;DHT22;11875;49.356;2.718;2023-08-20T05:31:20;20.20;99.90
23405;DHT22;11875;49.356;2.718;2023-08-20T05:33:46;20.30;99.90
23405;DHT22;11875;49.356;2.718;2023-08-20T05:36:12;20.20;99.90
23405;DHT22;11875;49.356;2.718;2023-08-20T05:38:37;20.30;99.90
23405;DHT22;11875;49.356;2.718;2023-08-20T05:41:03;20.30;99.90
23405;DHT22;11875;49.356;2.718;2023-08-20T05:43:28;20.30;99.90
23405;DHT22;11875;49.356;2.718;2023-08-20T05:45:54;20.40;99.90
23405;DHT22;11875;49.356;2.718;2023-08-20T05:48:20;20.30;99.90
23405;DHT22;11875;49.356;2.718;2023-08-20T05:50:45;20.30;99.90
23405;DHT22;11875;49.356;2.718;2023-08-20T05:53:11;20.30;99.90
23405;DHT22;11875;49.356;2.718;2023-08-20T05:55:37;20.30;99.90
23405;DHT22;11875;49.356;2.718;2023-08-20T05:58:03;20.40;99.90
23405;DHT22;11875;49.356;2.718;2023-08-20T06:00:29;20.30;99.90
23405;DHT22;11875;49.356;2.718;2023-08-20T06:02:54;20.40;99.90
23405;DHT22;11875;49.356;2.718;2023-08-20T06:05:20;20.40;99.90
23405;DHT22;11875;49.356;2.718;2023-08-20T06:07:45;20.50;99.90
23405;DHT22;11875;49.356;2.718;2023-08-20T06:10:11;20.50;99.90
23405;DHT22;11875;49.356;2.718;2023-08-20T06:12:37;20.50;99.90
23405;DHT22;11875;49.356;2.718;2023-08-20T06:15:03;20.40;99.90
23405;DHT22;11875;49.356;2.718;2023-08-20T06:17:29;20.50;99.90
23405;DHT22;11875;49.356;2.718;2023-08-20T06:19:54;20.60;99.90
23405;DHT22;11875;49.356;2.718;2023-08-20T06:22:20;20.70;99.90
23405;DHT22;11875;49.356;2.718;2023-08-20T06:24:46;20.70;99.90
23405;DHT22;11875;49.356;2.718;2023-08-20T06:27:11;20.70;99.90
23405;DHT22;11875;49.356;2.718;2023-08-20T06:29:37;20.80;99.90
23405;DHT22;11875;49.356;2.718;2023-08-20T06:32:03;20.80;99.90
23405;DHT22;11875;49.356;2.718;2023-08-20T06:34:28;20.80;99.90
23405;DHT22;11875;49.356;2.718;2023-08-20T06:36:54;20.80;99.90
23405;DHT22;11875;49.356;2.718;2023-08-20T06:39:19;20.80;99.90
23405;DHT22;11875;49.356;2.718;2023-08-20T06:41:45;20.90;99.90
23405;DHT22;11875;49.356;2.718;2023-08-20T06:44:11;20.90;99.90
23405;DHT22;11875;49.356;2.718;2023-08-20T06:46:37;20.90;99.90
23405;DHT22;11875;49.356;2.718;2023-08-20T06:49:02;20.90;99.90
23405;DHT22;11875;49.356;2.718;2023-08-20T06:51:28;21.00;99.90
23405;DHT22;11875;49.356;2.718;2023-08-20T06:53:54;21.00;99.90
23405;DHT22;11875;49.356;2.718;2023-08-20T06:56:22;21.10;99.90
23405;DHT22;11875;49.356;2.718;2023-08-20T06:58:48;21.20;99.90
23405;DHT22;11875;49.356;2.718;2023-08-20T07:01:14;21.30;99.90
23405;DHT22;11875;49.356;2.718;2023-08-20T07:03:40;21.30;99.90
23405;DHT22;11875;49.356;2.718;2023-08-20T07:06:06;21.30;99.90
23405;DHT22;11875;49.356;2.718;2023-08-20T07:08:32;21.30;99.90
23405;DHT22;11875;49.356;2.718;2023-08-20T07:10:58;21.20;99.90
23405;DHT22;11875;49.356;2.718;2023-08-20T07:13:24;21.30;99.90
23405;DHT22;11875;49.356;2.718;2023-08-20T07:15:50;21.50;99.90
23405;DHT22;11875;49.356;2.718;2023-08-20T07:18:16;21.50;99.90
23405;DHT22;11875;49.356;2.718;2023-08-20T07:20:44;21.70;99.90
23405;DHT22;11875;49.356;2.718;2023-08-20T07:23:11;21.70;99.90
23405;DHT22;11875;49.356;2.718;2023-08-20T07:25:37;21.60;99.90
23405;DHT22;11875;49.356;2.718;2023-08-20T07:28:04;21.60;99.90
23405;DHT22;11875;49.356;2.718;2023-08-20T07:30:30;21.70;99.90
23405;DHT22;11875;49.356;2.718;2023-08-20T07:32:56;22.00;99.90
23405;DHT22;11875;49.356;2.718;2023-08-20T07:35:22;21.90;99.90
23405;DHT22;11875;49.356;2.718;2023-08-20T07:37:47;22.00;99.90
23405;DHT22;11875;49.356;2.718;2023-08-20T07:40:13;22.20;99.90
23405;DHT22;11875;49.356;2.718;2023-08-20T07:42:40;22.50;99.90
23405;DHT22;11875;49.356;2.718;2023-08-20T07:45:07;22.60;99.90
23405;DHT22;11875;49.356;2.718;2023-08-20T07:47:38;22.80;99.90
23405;DHT22;11875;49.356;2.718;2023-08-20T07:50:05;23.30;99.90
23405;DHT22;11875;49.356;2.718;2023-08-20T07:52:31;23.70;99.90
23405;DHT22;11875;49.356;2.718;2023-08-20T07:54:57;24.10;99.90
23405;DHT22;11875;49.356;2.718;2023-08-20T07:57:23;24.60;99.90
23405;DHT22;11875;49.356;2.718;2023-08-20T07:59:51;24.80;99.90
23405;DHT22;11875;49.356;2.718;2023-08-20T08:02:17;25.00;99.90
23405;DHT22;11875;49.356;2.718;2023-08-20T08:04:43;25.20;99.90
23405;DHT22;11875;49.356;2.718;2023-08-20T08:07:10;25.20;99.90
23405;DHT22;11875;49.356;2.718;2023-08-20T08:09:35;25.30;99.90
23405;DHT22;11875;49.356;2.718;2023-08-20T08:12:02;25.50;99.90
23405;DHT22;11875;49.356;2.718;2023-08-20T08:14:28;25.60;99.90
23405;DHT22;11875;49.356;2.718;2023-08-20T08:16:54;25.80;99.90
23405;DHT22;11875;49.356;2.718;2023-08-20T08:19:19;26.00;99.90
23405;DHT22;11875;49.356;2.718;2023-08-20T08:21:46;26.10;99.90
23405;DHT22;11875;49.356;2.718;2023-08-20T08:24:12;26.20;99.90
23405;DHT22;11875;49.356;2.718;2023-08-20T08:26:39;26.50;99.90
23405;DHT22;11875;49.356;2.718;2023-08-20T08:29:05;26.60;99.90
23405;DHT22;11875;49.356;2.718;2023-08-20T08:31:32;26.70;99.90
23405;DHT22;11875;49.356;2.718;2023-08-20T08:33:57;26.80;99.90
23405;DHT22;11875;49.356;2.718;2023-08-20T08:36:23;26.90;99.90
23405;DHT22;11875;49.356;2.718;2023-08-20T08:38:51;27.00;99.90
23405;DHT22;11875;49.356;2.718;2023-08-20T08:41:17;27.10;99.90
23405;DHT22;11875;49.356;2.718;2023-08-20T08:43:43;27.10;99.90
23405;DHT22;11875;49.356;2.718;2023-08-20T08:46:15;27.20;99.90
23405;DHT22;11875;49.356;2.718;2023-08-20T08:48:42;27.30;99.90
23405;DHT22;11875;49.356;2.718;2023-08-20T08:51:08;27.30;99.90
23405;DHT22;11875;49.356;2.718;2023-08-20T08:53:35;27.30;99.90
23405;DHT22;11875;49.356;2.718;2023-08-20T08:56:01;27.30;99.90
23405;DHT22;11875;49.356;2.718;2023-08-20T08:58:28;27.40;99.90
23405;DHT22;11875;49.356;2.718;2023-08-20T09:00:53;27.70;99.90
23405;DHT22;11875;49.356;2.718;2023-08-20T09:03:19;27.80;99.90
23405;DHT22;11875;49.356;2.718;2023-08-20T09:05:49;28.00;99.90
23405;DHT22;11875;49.356;2.718;2023-08-20T09:08:21;28.20;99.90
23405;DHT22;11875;49.356;2.718;2023-08-20T09:10:50;28.30;99.90
23405;DHT22;11875;49.356;2.718;2023-08-20T09:13:17;28.40;99.90
23405;DHT22;11875;49.356;2.718;2023-08-20T09:15:42;28.50;99.90
23405;DHT22;11875;49.356;2.718;2023-08-20T09:18:11;28.60;99.90
23405;DHT22;11875;49.356;2.718;2023-08-20T09:20:37;28.50;99.90
23405;DHT22;11875;49.356;2.718;2023-08-20T09:23:04;28.50;99.90
23405;DHT22;11875;49.356;2.718;2023-08-20T09:25:29;28.60;99.90
23405;DHT22;11875;49.356;2.718;2023-08-20T09:27:55;28.70;99.90
23405;DHT22;11875;49.356;2.718;2023-08-20T09:30:21;28.70;99.90
23405;DHT22;11875;49.356;2.718;2023-08-20T09:33:03;28.80;99.90
23405;DHT22;11875;49.356;2.718;2023-08-20T09:35:29;28.90;99.90
23405;DHT22;11875;49.356;2.718;2023-08-20T09:38:02;28.90;99.90
23405;DHT22;11875;49.356;2.718;2023-08-20T09:40:29;29.00;99.90
23405;DHT22;11875;49.356;2.718;2023-08-20T09:42:55;29.20;99.90
23405;DHT22;11875;49.356;2.718;2023-08-20T09:45:21;29.30;99.90
23405;DHT22;11875;49.356;2.718;2023-08-20T09:47:49;29.30;99.90
23405;DHT22;11875;49.356;2.718;2023-08-20T09:50:17;29.40;99.90
23405;DHT22;11875;49.356;2.718;2023-08-20T09:52:52;29.50;99.90
23405;DHT22;11875;49.356;2.718;2023-08-20T09:55:21;29.50;99.90
23405;DHT22;11875;49.356;2.718;2023-08-20T09:57:48;29.60;99.90
23405;DHT22;11875;49.356;2.718;2023-08-20T10:00:13;29.40;99.90
23405;DHT22;11875;49.356;2.718;2023-08-20T10:02:40;29.50;99.90
23405;DHT22;11875;49.356;2.718;2023-08-20T10:05:07;29.50;99.90
23405;DHT22;11875;49.356;2.718;2023-08-20T10:07:34;29.50;99.90
23405;DHT22;11875;49.356;2.718;2023-08-20T10:10:04;29.60;99.90
23405;DHT22;11875;49.356;2.718;2023-08-20T10:12:31;29.70;99.90
23405;DHT22;11875;49.356;2.718;2023-08-20T10:14:58;29.60;99.90
23405;DHT22;11875;49.356;2.718;2023-08-20T10:17:24;29.80;99.90
23405;DHT22;11875;49.356;2.718;2023-08-20T10:19:53;30.00;99.90
23405;DHT22;11875;49.356;2.718;2023-08-20T10:22:19;30.10;99.90
23405;DHT22;11875;49.356;2.718;2023-08-20T10:24:52;30.40;99.90
23405;DHT22;11875;49.356;2.718;2023-08-20T10:27:28;30.40;99.90
23405;DHT22;11875;49.356;2.718;2023-08-20T10:29:58;30.30;99.90
23405;DHT22;11875;49.356;2.718;2023-08-20T10:35:12;30.30;99.90
23405;DHT22;11875;49.356;2.718;2023-08-20T10:37:38;30.30;99.90
23405;DHT22;11875;49.356;2.718;2023-08-20T10:40:06;30.10;99.90
23405;DHT22;11875;49.356;2.718;2023-08-20T10:42:32;30.10;99.90
23405;DHT22;11875;49.356;2.718;2023-08-20T10:45:09;30.20;99.90
23405;DHT22;11875;49.356;2.718;2023-08-20T10:50:02;30.60;99.90
23405;DHT22;11875;49.356;2.718;2023-08-20T10:52:28;31.70;99.90
23405;DHT22;11875;49.356;2.718;2023-08-20T10:54:56;30.80;99.90
23405;DHT22;11875;49.356;2.718;2023-08-20T10:57:21;30.70;99.90
23405;DHT22;11875;49.356;2.718;2023-08-20T10:59:57;30.40;99.90
23405;DHT22;11875;49.356;2.718;2023-08-20T11:02:26;30.40;99.90
23405;DHT22;11875;49.356;2.718;2023-08-20T11:04:53;30.50;99.90
23405;DHT22;11875;49.356;2.718;2023-08-20T11:07:19;30.70;99.90
23405;DHT22;11875;49.356;2.718;2023-08-20T11:09:45;30.90;99.90
23405;DHT22;11875;49.356;2.718;2023-08-20T11:12:15;31.00;99.90
23405;DHT22;11875;49.356;2.718;2023-08-20T11:14:41;31.10;99.90
23405;DHT22;11875;49.356;2.718;2023-08-20T11:17:07;31.20;99.90
23405;DHT22;11875;49.356;2.718;2023-08-20T11:19:33;31.10;99.90
23405;DHT22;11875;49.356;2.718;2023-08-20T11:21:59;31.00;99.90
23405;DHT22;11875;49.356;2.718;2023-08-20T11:24:29;30.90;99.90
23405;DHT22;11875;49.356;2.718;2023-08-20T11:26:54;30.90;99.90
23405;DHT22;11875;49.356;2.718;2023-08-20T11:29:25;31.10;99.90
23405;DHT22;11875;49.356;2.718;2023-08-20T11:31:52;31.20;99.90
23405;DHT22;11875;49.356;2.718;2023-08-20T11:34:18;31.20;99.90
23405;DHT22;11875;49.356;2.718;2023-08-20T11:36:44;31.20;99.90
23405;DHT22;11875;49.356;2.718;2023-08-20T11:39:10;31.20;99.90
23405;DHT22;11875;49.356;2.718;2023-08-20T11:41:36;31.10;99.90
23405;DHT22;11875;49.356;2.718;2023-08-20T11:44:03;31.20;99.90
23405;DHT22;11875;49.356;2.718;2023-08-20T11:46:29;31.20;99.90
23405;DHT22;11875;49.356;2.718;2023-08-20T11:49:13;31.40;99.90
23405;DHT22;11875;49.356;2.718;2023-08-20T11:51:47;31.60;99.90
23405;DHT22;11875;49.356;2.718;2023-08-20T11:54:16;31.60;99.90
23405;DHT22;11875;49.356;2.718;2023-08-20T11:56:49;31.60;99.90
23405;DHT22;11875;49.356;2.718;2023-08-20T11:59:16;31.70;99.90
23405;DHT22;11875;49.356;2.718;2023-08-20T12:01:42;31.70;99.90
23405;DHT22;11875;49.356;2.718;2023-08-20T12:04:09;31.70;99.90
23405;DHT22;11875;49.356;2.718;2023-08-20T12:06:36;31.70;99.90
23405;DHT22;11875;49.356;2.718;2023-08-20T12:09:18;31.70;99.90
23405;DHT22;11875;49.356;2.718;2023-08-20T12:11:49;31.80;99.90
23405;DHT22;11875;49.356;2.718;2023-08-20T12:14:14;31.90;99.90
23405;DHT22;11875;49.356;2.718;2023-08-20T12:16:40;31.90;99.90
23405;DHT22;11875;49.356;2.718;2023-08-20T12:19:05;32.10;99.90
23405;DHT22;11875;49.356;2.718;2023-08-20T12:21:31;32.10;99.90
23405;DHT22;11875;49.356;2.718;2023-08-20T12:23:56;32.00;99.90
23405;DHT22;11875;49.356;2.718;2023-08-20T12:26:22;31.90;99.90
23405;DHT22;11875;49.356;2.718;2023-08-20T12:28:48;31.90;99.90
23405;DHT22;11875;49.356;2.718;2023-08-20T12:31:13;32.10;99.90
23405;DHT22;11875;49.356;2.718;2023-08-20T12:33:39;32.10;99.90
23405;DHT22;11875;49.356;2.718;2023-08-20T12:36:05;32.20;99.90
23405;DHT22;11875;49.356;2.718;2023-08-20T12:38:31;32.50;99.90
23405;DHT22;11875;49.356;2.718;2023-08-20T12:40:59;32.50;99.90
23405;DHT22;11875;49.356;2.718;2023-08-20T12:43:25;32.60;99.90
23405;DHT22;11875;49.356;2.718;2023-08-20T12:45:52;32.50;99.90
23405;DHT22;11875;49.356;2.718;2023-08-20T12:48:17;32.50;99.90
23405;DHT22;11875;49.356;2.718;2023-08-20T12:50:43;32.60;99.90
23405;DHT22;11875;49.356;2.718;2023-08-20T12:53:08;32.60;99.90
23405;DHT22;11875;49.356;2.718;2023-08-20T12:55:34;32.80;99.90
23405;DHT22;11875;49.356;2.718;2023-08-20T12:57:59;33.00;99.90
23405;DHT22;11875;49.356;2.718;2023-08-20T13:00:26;33.20;99.90
23405;DHT22;11875;49.356;2.718;2023-08-20T13:02:55;33.30;99.90
23405;DHT22;11875;49.356;2.718;2023-08-20T13:05:23;33.10;99.90
23405;DHT22;11875;49.356;2.718;2023-08-20T13:07:48;33.20;99.90
23405;DHT22;11875;49.356;2.718;2023-08-20T13:10:14;33.30;99.90
23405;DHT22;11875;49.356;2.718;2023-08-20T13:13:01;33.40;99.90
23405;DHT22;11875;49.356;2.718;2023-08-20T13:15:27;33.40;99.90
23405;DHT22;11875;49.356;2.718;2023-08-20T13:17:53;33.40;99.90
23405;DHT22;11875;49.356;2.718;2023-08-20T13:20:20;33.50;99.90
23405;DHT22;11875;49.356;2.718;2023-08-20T13:22:51;33.50;99.90
23405;DHT22;11875;49.356;2.718;2023-08-20T13:25:17;33.50;99.90
23405;DHT22;11875;49.356;2.718;2023-08-20T13:27:42;33.40;99.90
23405;DHT22;11875;49.356;2.718;2023-08-20T13:30:08;33.30;99.90
23405;DHT22;11875;49.356;2.718;2023-08-20T13:32:35;33.50;99.90
23405;DHT22;11875;49.356;2.718;2023-08-20T13:35:01;33.50;99.90
23405;DHT22;11875;49.356;2.718;2023-08-20T13:37:28;33.50;99.90
23405;DHT22;11875;49.356;2.718;2023-08-20T13:39:54;33.60;99.90
23405;DHT22;11875;49.356;2.718;2023-08-20T13:42:20;33.60;99.90
23405;DHT22;11875;49.356;2.718;2023-08-20T13:44:45;33.70;99.80
23405;DHT22;11875;49.356;2.718;2023-08-20T13:47:11;33.70;99.90
23405;DHT22;11875;49.356;2.718;2023-08-20T13:49:36;33.70;99.90
23405;DHT22;11875;49.356;2.718;2023-08-20T13:52:02;33.70;99.70
23405;DHT22;11875;49.356;2.718;2023-08-20T13:54:28;33.90;99.70
23405;DHT22;11875;49.356;2.718;2023-08-20T13:56:53;34.10;99.70
23405;DHT22;11875;49.356;2.718;2023-08-20T13:59:19;34.20;99.60
23405;DHT22;11875;49.356;2.718;2023-08-20T14:01:44;34.20;99.60
23405;DHT22;11875;49.356;2.718;2023-08-20T14:04:10;34.10;99.40
23405;DHT22;11875;49.356;2.718;2023-08-20T14:06:35;34.00;99.50
23405;DHT22;11875;49.356;2.718;2023-08-20T14:09:01;33.70;99.50
23405;DHT22;11875;49.356;2.718;2023-08-20T14:11:28;33.60;99.50
23405;DHT22;11875;49.356;2.718;2023-08-20T14:13:54;33.50;99.60
23405;DHT22;11875;49.356;2.718;2023-08-20T14:16:19;33.50;99.80
23405;DHT22;11875;49.356;2.718;2023-08-20T14:18:45;33.60;99.40
23405;DHT22;11875;49.356;2.718;2023-08-20T14:21:11;33.50;99.50
23405;DHT22;11875;49.356;2.718;2023-08-20T14:23:36;33.60;99.60
23405;DHT22;11875;49.356;2.718;2023-08-20T14:26:05;33.60;99.10
23405;DHT22;11875;49.356;2.718;2023-08-20T14:28:31;33.70;99.10
23405;DHT22;11875;49.356;2.718;2023-08-20T14:30:56;33.90;98.80
23405;DHT22;11875;49.356;2.718;2023-08-20T14:33:22;33.90;98.40
23405;DHT22;11875;49.356;2.718;2023-08-20T14:35:48;34.00;98.60
23405;DHT22;11875;49.356;2.718;2023-08-20T14:38:13;34.00;98.60
23405;DHT22;11875;49.356;2.718;2023-08-20T14:40:41;34.20;98.00
23405;DHT22;11875;49.356;2.718;2023-08-20T14:43:08;34.20;98.20
23405;DHT22;11875;49.356;2.718;2023-08-20T14:45:33;34.20;97.90
23405;DHT22;11875;49.356;2.718;2023-08-20T14:47:59;34.10;97.90
23405;DHT22;11875;49.356;2.718;2023-08-20T14:50:24;33.90;98.20
23405;DHT22;11875;49.356;2.718;2023-08-20T14:52:50;33.70;98.70
23405;DHT22;11875;49.356;2.718;2023-08-20T14:55:18;33.70;98.20
23405;DHT22;11875;49.356;2.718;2023-08-20T14:57:44;33.70;98.30
23405;DHT22;11875;49.356;2.718;2023-08-20T15:00:11;33.80;98.20
23405;DHT22;11875;49.356;2.718;2023-08-20T15:02:43;33.90;98.30
23405;DHT22;11875;49.356;2.718;2023-08-20T15:05:10;34.00;97.90
23405;DHT22;11875;49.356;2.718;2023-08-20T15:07:36;33.90;98.30
23405;DHT22;11875;49.356;2.718;2023-08-20T15:10:02;33.80;98.00
23405;DHT22;11875;49.356;2.718;2023-08-20T15:12:28;33.70;98.00
23405;DHT22;11875;49.356;2.718;2023-08-20T15:14:54;33.50;98.00
23405;DHT22;11875;49.356;2.718;2023-08-20T15:17:19;33.40;98.40
23405;DHT22;11875;49.356;2.718;2023-08-20T15:19:46;33.30;98.40
23405;DHT22;11875;49.356;2.718;2023-08-20T15:22:13;33.30;98.40
23405;DHT22;11875;49.356;2.718;2023-08-20T15:24:39;33.20;98.30
23405;DHT22;11875;49.356;2.718;2023-08-20T15:27:04;33.30;98.40
23405;DHT22;11875;49.356;2.718;2023-08-20T15:29:30;33.20;98.50
23405;DHT22;11875;49.356;2.718;2023-08-20T15:31:56;33.30;98.60
23405;DHT22;11875;49.356;2.718;2023-08-20T15:34:21;33.50;98.50
23405;DHT22;11875;49.356;2.718;2023-08-20T15:36:47;33.60;98.10